Time;durP1;ratioP1;P1;durP2;ratioP2;P2;SDS_P1;SDS_P2;PMS_P1;PMS_P2;Temp;Humidity;BMP_temperature;BMP_pressure;BME280_temperature;BME280_humidity;BME280_pressure;Samples;Min_cycle;Max_cycle;Signal;HPM_P1;HPM_P2
2022/10/19 00:00:05;;;;;;;7.70;2.00;;;;;;;11.90;74.97;101630.14;1785124;80;21073;-82
2022/10/19 00:02:36;;;;;;;5.10;1.72;;;;;;;11.85;74.95;101632.17;1762922;79;21085;-82
2022/10/19 00:05:03;;;;;;;8.58;2.05;;;;;;;11.80;75.00;101630.22;1773368;80;21902;-82
2022/10/19 00:07:30;;;;;;;10.15;1.98;;;;;;;11.74;75.04;101619.05;1789425;80;21057;-82
2022/10/19 00:09:56;;;;;;;8.75;2.05;;;;;;;11.71;75.11;101620.67;1790575;79;22091;-82
2022/10/19 00:12:24;;;;;;;7.78;2.40;;;;;;;11.65;75.21;101614.34;1790703;79;21072;-81
2022/10/19 00:14:54;;;;;;;4.72;1.50;;;;;;;11.60;75.31;101615.95;1778683;80;21076;-88
2022/10/19 00:17:29;;;;;;;8.33;1.82;;;;;;;11.57;75.39;101613.19;1763581;80;21760;-89
2022/10/19 00:20:08;;;;;;;7.70;2.10;;;;;;;11.53;75.45;101605.14;1764295;80;21089;-89
2022/10/19 00:22:44;;;;;;;9.73;1.72;;;;;;;11.48;75.44;101601.00;1702638;83;21077;-89
2022/10/19 00:25:11;;;;;;;11.12;2.10;;;;;;;11.42;75.52;101616.19;1733684;82;21238;-90
2022/10/19 00:27:41;;;;;;;10.38;2.10;;;;;;;11.38;75.66;101614.72;1760116;81;21014;-89
2022/10/19 00:30:08;;;;;;;7.83;1.90;;;;;;;11.33;75.75;101614.53;1743739;80;22549;-89
2022/10/19 00:32:35;;;;;;;5.65;1.85;;;;;;;11.32;75.93;101615.39;1743396;80;21048;-89
2022/10/19 00:35:02;;;;;;;8.48;1.70;;;;;;;11.33;76.10;101621.55;1774516;80;21002;-88
2022/10/19 00:37:29;;;;;;;15.23;2.98;;;;;;;11.36;76.24;101615.98;1750946;80;21083;-89
2022/10/19 00:39:56;;;;;;;7.70;2.25;;;;;;;11.44;76.41;101614.50;1740643;82;21058;-81
2022/10/19 00:42:24;;;;;;;8.23;2.10;;;;;;;11.54;76.48;101610.44;1739755;82;21856;-88
2022/10/19 00:45:00;;;;;;;11.53;1.75;;;;;;;11.63;76.49;101606.80;1739431;82;21229;-88
2022/10/19 00:47:28;;;;;;;7.35;1.90;;;;;;;11.74;76.39;101606.29;1739152;81;21092;-81
2022/10/19 00:49:55;;;;;;;10.45;1.92;;;;;;;11.77;76.20;101599.37;1770817;80;21038;-81
2022/10/19 00:52:23;;;;;;;5.22;1.90;;;;;;;11.77;76.02;101596.73;1752016;80;21135;-81
2022/10/19 00:54:50;;;;;;;7.47;1.70;;;;;;;11.74;75.92;101609.81;1773384;80;21775;-81
2022/10/19 00:57:18;;;;;;;7.33;1.98;;;;;;;11.72;75.95;101611.94;1773654;80;21057;-82
2022/10/19 00:59:48;;;;;;;7.92;2.00;;;;;;;11.71;75.98;101607.48;1768908;79;21065;-81
2022/10/19 01:02:15;;;;;;;7.83;1.70;;;;;;;11.67;75.96;101609.13;1705635;80;21480;-81
2022/10/19 01:04:46;;;;;;;7.03;1.70;;;;;;;11.62;75.93;101612.05;1749979;80;21123;-81
2022/10/19 01:07:13;;;;;;;7.03;2.45;;;;;;;11.57;76.08;101614.51;1748990;80;21895;-81
2022/10/19 01:09:40;;;;;;;6.12;1.70;;;;;;;11.55;76.14;101621.47;1739949;81;21606;-81
2022/10/19 01:12:47;;;;;;;8.20;1.90;;;;;;;11.55;76.22;101616.63;1739983;81;21581;-81
2022/10/19 01:15:32;;;;;;;11.20;1.80;;;;;;;11.57;76.40;101617.58;1760982;80;21599;-81
2022/10/19 01:18:23;;;;;;;8.48;1.80;;;;;;;11.66;76.57;101625.38;1761144;80;21530;-81
2022/10/19 01:21:22;;;;;;;7.55;1.67;;;;;;;11.74;76.57;101608.49;1714753;80;21787;-81
2022/10/19 01:23:57;;;;;;;5.78;1.80;;;;;;;11.82;76.50;101619.30;1773388;80;22154;-82
2022/10/19 01:26:52;;;;;;;6.30;1.42;;;;;;;11.91;76.46;101614.37;1744150;80;21615;-89
2022/10/19 01:29:38;;;;;;;;;;;;;;;11.99;76.38;101613.30;1770187;79;21008;-89
2022/10/19 01:32:10;;;;;;;7.95;1.60;;;;;;;12.02;76.17;101613.41;1739740;82;20542;-89
2022/10/19 01:34:58;;;;;;;5.30;1.72;;;;;;;11.99;75.96;101618.18;1740691;81;21776;-90
2022/10/19 01:37:49;;;;;;;8.38;1.87;;;;;;;11.93;75.93;101612.67;1733263;81;21042;-90
2022/10/19 01:40:42;;;;;;;4.83;1.17;;;;;;;11.89;76.08;101610.75;1724273;82;21114;-90
2022/10/19 01:43:26;;;;;;;7.40;1.90;;;;;;;11.97;76.31;101601.80;1737607;81;21496;-90
2022/10/19 01:46:06;;;;;;;6.65;1.65;;;;;;;12.03;76.37;101603.31;1735224;81;21019;-90
2022/10/19 01:48:35;;;;;;;7.83;1.57;;;;;;;12.08;76.33;101596.45;1740389;82;21794;-81
2022/10/19 01:51:05;;;;;;;5.58;1.25;;;;;;;12.10;76.24;101584.63;1762500;80;21323;-81
2022/10/19 01:53:36;;;;;;;4.30;1.37;;;;;;;12.11;76.12;101590.40;1773389;80;21108;-80
2022/10/19 01:56:03;;;;;;;7.25;1.95;;;;;;;12.02;75.89;101585.70;1773491;80;21110;-80
2022/10/19 01:58:32;;;;;;;4.87;1.22;;;;;;;11.90;75.85;101576.06;1751742;80;21771;-80
2022/10/19 02:01:01;;;;;;;4.17;1.00;;;;;;;11.81;75.88;101585.44;1760262;80;21180;-81
2022/10/19 02:03:28;;;;;;;4.47;1.30;;;;;;;11.71;75.95;101583.32;1755378;80;21058;-81
2022/10/19 02:05:56;;;;;;;5.62;1.37;;;;;;;11.62;76.08;101574.70;1700958;81;21031;-80
2022/10/19 02:08:37;;;;;;;5.10;1.50;;;;;;;11.53;76.18;101568.22;1749418;79;21093;-80
2022/10/19 02:11:04;;;;;;;6.70;1.30;;;;;;;11.47;76.30;101574.19;1773314;80;21109;-81
2022/10/19 02:13:31;;;;;;;3.12;0.95;;;;;;;11.41;76.40;101570.91;1751808;80;21900;-81
2022/10/19 02:15:59;;;;;;;5.90;1.10;;;;;;;11.39;76.57;101577.88;1773498;80;21425;-81
2022/10/19 02:18:38;;;;;;;6.58;1.75;;;;;;;11.40;76.75;101577.44;1773509;80;21077;-81
2022/10/19 02:21:05;;;;;;;3.45;0.98;;;;;;;11.44;76.86;101575.38;1754799;80;21050;-81
2022/10/19 02:23:34;;;;;;;5.60;1.40;;;;;;;11.51;76.88;101576.50;1677296;84;21586;-90
2022/10/19 02:26:01;;;;;;;3.65;1.20;;;;;;;11.55;76.86;101578.39;1701828;84;22574;-89
2022/10/19 02:28:28;;;;;;;6.03;1.40;;;;;;;11.61;76.87;101583.88;1707416;84;21018;-89
2022/10/19 02:30:56;;;;;;;4.05;1.30;;;;;;;11.65;76.83;101589.28;1697169;83;21109;-89
2022/10/19 02:33:25;;;;;;;6.37;1.42;;;;;;;11.69;76.80;101585.02;1696960;82;21042;-89
2022/10/19 02:35:52;;;;;;;4.50;1.47;;;;;;;11.72;76.77;101592.16;1702243;84;21085;-89
2022/10/19 02:38:21;;;;;;;3.50;1.00;;;;;;;11.75;76.78;101597.11;1706849;84;21826;-89
2022/10/19 02:41:11;;;;;;;12.15;1.60;;;;;;;11.78;76.78;101597.62;1727177;82;21039;-89
2022/10/19 02:43:50;;;;;;;4.35;1.10;;;;;;;11.83;76.85;101600.89;1716588;83;21065;-89
2022/10/19 02:46:28;;;;;;;6.37;1.10;;;;;;;11.85;76.86;101600.52;1767153;81;21073;-89
2022/10/19 02:48:55;;;;;;;7.00;1.40;;;;;;;11.87;76.96;101606.73;1752397;81;21049;-89
2022/10/19 02:51:39;;;;;;;2.83;1.02;;;;;;;11.88;77.19;101605.02;1750426;80;21184;-89
2022/10/19 02:54:07;;;;;;;3.35;1.42;;;;;;;11.88;77.58;101602.38;1745419;81;21064;-89
2022/10/19 02:56:37;;;;;;;5.87;1.05;;;;;;;11.87;77.94;101608.48;1745569;81;21062;-89
2022/10/19 02:59:04;;;;;;;3.00;1.00;;;;;;;11.83;77.98;101610.13;1739647;80;21109;-89
2022/10/19 03:01:31;;;;;;;4.10;1.17;;;;;;;11.82;78.16;101600.84;1734672;81;21069;-89
2022/10/19 03:03:58;;;;;;;3.98;1.12;;;;;;;11.82;78.33;101607.43;1738969;82;22539;-89
2022/10/19 03:06:38;;;;;;;3.65;1.05;;;;;;;11.80;78.39;101602.09;1739836;82;21049;-90
2022/10/19 03:09:06;;;;;;;7.12;1.60;;;;;;;11.80;78.46;101603.84;1750591;80;20991;-89
2022/10/19 03:11:32;;;;;;;4.22;1.50;;;;;;;11.79;78.59;101601.64;1773398;79;21061;-89
2022/10/19 03:13:59;;;;;;;4.08;1.20;;;;;;;11.80;78.65;101600.78;1753059;79;21097;-81
2022/10/19 03:16:26;;;;;;;5.85;1.05;;;;;;;11.83;78.74;101610.56;1759097;80;21781;-90
2022/10/19 03:18:53;;;;;;;3.00;1.10;;;;;;;11.83;78.80;101605.28;1764329;80;21038;-82
2022/10/19 03:21:20;;;;;;;4.70;1.27;;;;;;;11.85;78.93;101605.80;1761711;81;21028;-89
2022/10/19 03:23:47;;;;;;;3.52;1.20;;;;;;;11.86;78.89;101608.00;1745330;82;21040;-88
2022/10/19 03:26:15;;;;;;;3.55;1.52;;;;;;;11.83;78.88;101611.45;1735691;81;21106;-91
2022/10/19 03:28:42;;;;;;;4.10;1.40;;;;;;;11.82;78.98;101609.67;1745480;81;21731;-90
2022/10/19 03:31:10;;;;;;;4.30;1.47;;;;;;;11.87;79.10;101612.45;1747655;80;21015;-90
2022/10/19 03:33:37;;;;;;;5.65;1.47;;;;;;;11.89;79.20;101608.55;1758187;81;21151;-90
2022/10/19 03:36:23;;;;;;;3.42;1.30;;;;;;;11.94;79.27;101614.48;1770365;80;21081;-81
2022/10/19 03:38:56;;;;;;;7.22;1.75;;;;;;;11.97;79.30;101610.61;1769995;80;21057;-81
2022/10/19 03:41:25;;;;;;;3.52;2.22;;;;;;;11.98;79.28;101616.37;1746979;80;21758;-81
2022/10/19 03:43:52;;;;;;;7.75;3.72;;;;;;;11.98;79.22;101624.72;1758331;81;21049;-81
2022/10/19 03:46:19;;;;;;;5.35;2.08;;;;;;;11.91;79.09;101626.67;1764962;80;20994;-80
2022/10/19 03:48:46;;;;;;;5.35;2.20;;;;;;;11.86;79.14;101627.78;1758188;81;21027;-81
2022/10/19 03:51:15;;;;;;;5.87;2.08;;;;;;;11.82;79.20;101631.17;1750355;81;21500;-81
2022/10/19 03:53:41;;;;;;;4.25;2.22;;;;;;;11.79;79.33;101637.69;1746482;80;22554;-91
2022/10/19 03:56:13;;;;;;;3.72;1.90;;;;;;;11.73;79.40;101638.37;1754079;80;21058;-91
2022/10/19 03:58:40;;;;;;;4.70;1.22;;;;;;;11.75;79.55;101638.39;1723910;81;21071;-90
2022/10/19 04:01:10;;;;;;;3.72;1.77;;;;;;;11.71;79.43;101636.50;1745175;80;21039;-90
2022/10/19 04:03:50;;;;;;;4.80;1.90;;;;;;;11.69;79.58;101636.44;1751491;79;21114;-88
2022/10/19 04:06:32;;;;;;;4.03;1.22;;;;;;;11.66;79.70;101633.29;1744938;81;21070;-90
2022/10/19 04:09:02;;;;;;;4.30;1.50;;;;;;;11.64;79.68;101634.09;1762508;80;21073;-89
2022/10/19 04:11:30;;;;;;;4.70;2.05;;;;;;;11.63;79.80;101645.03;1757798;81;21105;-90
2022/10/19 04:13:57;;;;;;;5.97;3.95;;;;;;;11.61;79.77;101643.20;1753436;80;21175;-91
2022/10/19 04:16:25;;;;;;;2.20;1.37;;;;;;;11.57;79.77;101647.90;1745315;81;21059;-90
2022/10/19 04:18:52;;;;;;;2.42;1.30;;;;;;;11.55;79.74;101649.16;1745210;81;21730;-88
2022/10/19 04:21:35;;;;;;;3.72;1.82;;;;;;;11.50;79.74;101654.68;1744735;81;21017;-92
2022/10/19 04:24:14;;;;;;;4.17;2.60;;;;;;;11.45;79.82;101650.58;1745651;81;21108;-84
2022/10/19 04:26:44;;;;;;;3.02;1.55;;;;;;;11.35;79.89;101655.45;1758514;80;21683;-80
2022/10/19 04:29:11;;;;;;;2.17;1.37;;;;;;;11.24;79.96;101662.56;1772791;79;21552;-83
2022/10/19 04:31:39;;;;;;;2.85;1.35;;;;;;;11.21;80.13;101662.44;1706517;83;22387;-83
2022/10/19 04:34:08;;;;;;;4.92;1.32;;;;;;;11.20;80.34;101671.59;1701541;83;21042;-84
2022/10/19 04:36:36;;;;;;;2.65;1.02;;;;;;;11.20;80.46;101662.38;1701416;84;21164;-83
2022/10/19 04:39:04;;;;;;;3.80;1.25;;;;;;;11.24;80.63;101671.79;1701438;84;21130;-81
2022/10/19 04:41:32;;;;;;;3.55;1.37;;;;;;;11.27;80.62;101681.53;1700989;84;21059;-82
2022/10/19 04:44:01;;;;;;;5.90;3.70;;;;;;;11.30;80.72;101679.02;1701521;84;21766;-81
2022/10/19 04:46:28;;;;;;;8.10;2.67;;;;;;;11.30;80.82;101685.61;1701511;84;21023;-81
2022/10/19 04:48:55;;;;;;;2.62;1.30;;;;;;;11.26;80.84;101696.85;1676764;85;21050;-81
2022/10/19 04:51:22;;;;;;;4.80;1.35;;;;;;;11.16;81.27;101707.91;1724289;82;21067;-82
2022/10/19 04:53:49;;;;;;;4.87;2.35;;;;;;;11.01;81.27;101712.16;1730130;82;21106;-82
2022/10/19 04:56:20;;;;;;;3.25;1.10;;;;;;;10.72;81.02;101705.75;1730627;82;21708;-81
2022/10/19 04:58:47;;;;;;;3.55;1.10;;;;;;;10.54;81.82;101696.28;1744246;82;21064;-80
2022/10/19 05:01:17;;;;;;;2.60;1.10;;;;;;;10.42;82.09;101701.96;1754732;81;21111;-82
2022/10/19 05:03:44;;;;;;;6.65;2.45;;;;;;;10.31;82.31;101705.45;1740778;79;21043;-81
2022/10/19 05:06:13;;;;;;;3.92;1.25;;;;;;;10.27;82.59;101703.50;1741569;81;21586;-90
2022/10/19 05:08:39;;;;;;;1.72;0.82;;;;;;;10.27;82.69;101706.14;1744800;80;22467;-92
2022/10/19 05:11:11;;;;;;;5.80;3.52;;;;;;;10.26;82.67;101702.13;1770681;79;21030;-92
2022/10/19 05:13:37;;;;;;;4.95;2.12;;;;;;;10.23;82.67;101706.85;1770098;80;21730;-90
2022/10/19 05:16:06;;;;;;;3.67;1.65;;;;;;;10.20;82.65;101702.77;1740718;79;21066;-91
2022/10/19 05:18:33;;;;;;;4.30;2.47;;;;;;;10.15;82.61;101706.92;1721039;82;21352;-81
2022/10/19 05:21:07;;;;;;;1.80;1.20;;;;;;;10.18;82.93;101712.33;1737022;81;21794;-89
2022/10/19 05:23:49;;;;;;;6.10;2.25;;;;;;;10.18;82.88;101713.64;1739341;81;21269;-88
2022/10/19 05:26:21;;;;;;;4.33;1.92;;;;;;;10.14;82.92;101722.25;1692907;82;21070;-88
2022/10/19 05:28:55;;;;;;;4.65;1.82;;;;;;;10.08;82.85;101717.63;1739210;81;21045;-88
2022/10/19 05:31:20;;;;;;;4.72;1.37;;;;;;;10.07;83.08;101723.70;1741637;80;21538;-88
2022/10/19 05:33:47;;;;;;;4.97;2.08;;;;;;;10.09;83.26;101729.03;1744681;81;21819;-89
2022/10/19 05:36:19;;;;;;;3.02;1.70;;;;;;;10.11;83.26;101740.09;1736232;81;21042;-89
2022/10/19 05:38:48;;;;;;;3.22;1.40;;;;;;;10.14;83.30;101737.14;1735802;81;21024;-88
2022/10/19 05:41:15;;;;;;;2.67;1.50;;;;;;;10.17;83.30;101737.25;1736073;81;21044;-88
2022/10/19 05:43:42;;;;;;;4.62;1.50;;;;;;;10.20;83.37;101745.28;1745726;81;21118;-89
2022/10/19 05:46:11;;;;;;;3.60;1.32;;;;;;;10.24;83.24;101749.84;1740749;80;21363;-88
2022/10/19 05:48:38;;;;;;;2.72;1.42;;;;;;;10.28;83.13;101747.81;1742938;81;21059;-89
2022/10/19 05:51:06;;;;;;;2.98;1.32;;;;;;;10.33;83.15;101759.48;1721367;81;21680;-88
2022/10/19 05:53:33;;;;;;;4.83;1.37;;;;;;;10.36;83.14;101754.75;1729563;81;21624;-88
2022/10/19 05:56:00;;;;;;;6.12;2.00;;;;;;;10.35;82.90;101756.91;1743770;81;21579;-88
2022/10/19 05:58:27;;;;;;;3.85;2.35;;;;;;;10.38;83.02;101760.58;1743587;81;21775;-87
2022/10/19 06:00:55;;;;;;;4.67;2.60;;;;;;;10.43;83.10;101751.54;1727014;80;21050;-88
2022/10/19 06:03:23;;;;;;;3.90;2.40;;;;;;;10.48;82.96;101760.54;1736661;81;21084;-87
2022/10/19 06:05:49;;;;;;;4.53;1.75;;;;;;;10.53;82.89;101762.95;1728313;81;21628;-87
2022/10/19 06:08:17;;;;;;;6.85;1.77;;;;;;;10.53;82.66;101761.63;1750763;81;21697;-88
2022/10/19 06:10:44;;;;;;;6.80;3.83;;;;;;;10.56;82.72;101767.44;1750948;81;21724;-88
2022/10/19 06:13:12;;;;;;;2.87;1.75;;;;;;;10.60;82.58;101766.72;1736039;81;21057;-88
2022/10/19 06:15:39;;;;;;;4.20;1.85;;;;;;;10.64;82.64;101764.30;1745082;81;21037;-87
2022/10/19 06:18:10;;;;;;;4.08;2.00;;;;;;;10.70;82.42;101770.23;1737535;81;21141;-88
2022/10/19 06:20:39;;;;;;;3.08;1.40;;;;;;;10.73;82.22;101772.96;1743191;81;21132;-88
2022/10/19 06:23:06;;;;;;;4.12;1.95;;;;;;;10.76;82.10;101784.95;1750889;81;21727;-88
2022/10/19 06:25:34;;;;;;;6.00;3.15;;;;;;;10.74;81.84;101783.10;1750760;81;21025;-88
2022/10/19 06:28:00;;;;;;;4.95;2.65;;;;;;;10.73;81.78;101794.45;1750885;81;21092;-88
2022/10/19 06:30:28;;;;;;;8.05;4.28;;;;;;;10.74;81.76;101799.80;1759237;79;21063;-87
2022/10/19 06:32:55;;;;;;;3.67;1.55;;;;;;;10.74;81.55;101801.11;1795964;79;21342;-87
2022/10/19 06:35:22;;;;;;;6.92;4.05;;;;;;;10.75;81.39;101799.36;1795919;79;22586;-87
2022/10/19 06:37:51;;;;;;;5.00;1.80;;;;;;;10.72;81.29;101797.91;1795615;79;21037;-87
2022/10/19 06:40:18;;;;;;;5.05;1.67;;;;;;;10.69;81.21;101806.17;1795926;79;21111;-87
2022/10/19 06:42:45;;;;;;;3.98;1.67;;;;;;;10.65;81.15;101804.25;1795862;79;21029;-88
2022/10/19 06:45:12;;;;;;;4.50;1.55;;;;;;;10.63;81.01;101811.62;1795586;79;21525;-87
2022/10/19 06:47:39;;;;;;;4.55;2.02;;;;;;;10.59;80.90;101817.17;1775586;79;21724;-88
2022/10/19 06:50:07;;;;;;;6.28;2.33;;;;;;;10.56;80.90;101813.08;1795719;79;21640;-88
2022/10/19 06:52:34;;;;;;;4.42;2.10;;;;;;;10.56;80.80;101824.92;1777651;79;21304;-88
2022/10/19 06:55:01;;;;;;;5.67;1.52;;;;;;;10.59;80.72;101832.08;1793339;79;21033;-88
2022/10/19 06:57:28;;;;;;;4.67;2.30;;;;;;;10.63;80.69;101840.16;1795315;79;21053;-88
2022/10/19 06:59:55;;;;;;;3.70;1.70;;;;;;;10.72;80.51;101840.05;1791664;79;22507;-88
2022/10/19 07:02:22;;;;;;;4.47;1.85;;;;;;;10.73;80.34;101845.81;1779278;79;21822;-88
2022/10/19 07:04:49;;;;;;;2.83;2.08;;;;;;;10.75;80.24;101847.66;1779832;79;21039;-88
2022/10/19 07:07:16;;;;;;;3.12;1.50;;;;;;;10.80;79.98;101854.02;1786885;79;21050;-87
2022/10/19 07:09:43;;;;;;;2.77;1.65;;;;;;;10.89;80.05;101864.95;1780311;79;21044;-87
2022/10/19 07:12:10;;;;;;;4.08;1.80;;;;;;;11.05;79.95;101861.63;1796067;79;22431;-87
2022/10/19 07:14:38;;;;;;;6.80;1.60;;;;;;;11.19;79.66;101871.00;1795917;79;21628;-88
2022/10/19 07:17:09;;;;;;;3.27;1.82;;;;;;;11.28;79.09;101878.39;1796129;79;21055;-87
2022/10/19 07:19:35;;;;;;;6.28;2.95;;;;;;;11.28;78.26;101877.95;1753846;80;21137;-82
2022/10/19 07:22:03;;;;;;;6.53;4.00;;;;;;;11.34;78.23;101883.89;1755311;80;21528;-83
2022/10/19 07:24:30;;;;;;;3.12;1.40;;;;;;;11.38;77.81;101893.72;1765786;79;21712;-82
2022/10/19 07:27:02;;;;;;;4.33;2.08;;;;;;;11.35;77.33;101891.37;1782838;78;21045;-84
2022/10/19 07:29:28;;;;;;;4.08;2.20;;;;;;;11.25;77.76;101870.34;1769097;79;21065;-82
2022/10/19 07:31:55;;;;;;;5.70;1.32;;;;;;;11.33;77.47;101903.17;1780681;79;22050;-82
2022/10/19 07:34:22;;;;;;;3.05;1.32;;;;;;;11.27;77.06;101897.66;1795710;79;21064;-82
2022/10/19 07:36:51;;;;;;;4.15;1.77;;;;;;;11.20;76.98;101912.73;1796056;79;21722;-83
2022/10/19 07:39:18;;;;;;;9.43;1.90;;;;;;;11.13;76.94;101918.58;1774936;79;21049;-82
2022/10/19 07:41:45;;;;;;;3.55;1.50;;;;;;;11.07;76.84;101913.95;1796039;79;21123;-83
2022/10/19 07:44:13;;;;;;;5.55;1.90;;;;;;;11.01;76.86;101906.70;1796039;79;21178;-83
2022/10/19 07:46:40;;;;;;;3.67;1.60;;;;;;;10.98;76.87;101914.89;1788076;79;21033;-83
2022/10/19 07:49:15;;;;;;;4.42;2.83;;;;;;;11.00;77.00;101912.82;1766561;80;21024;-83
2022/10/19 07:51:42;;;;;;;7.20;3.45;;;;;;;11.03;76.92;101922.58;1729682;81;21053;-83
2022/10/19 07:54:09;;;;;;;5.40;2.27;;;;;;;11.05;76.89;101927.06;1727110;81;21087;-83
2022/10/19 07:56:36;;;;;;;4.97;3.70;;;;;;;11.03;76.54;101921.26;1741648;81;21557;-83
2022/10/19 07:59:04;;;;;;;7.08;3.15;;;;;;;11.00;76.59;101929.02;1728373;81;21010;-83
2022/10/19 08:01:37;;;;;;;4.97;1.85;;;;;;;11.02;76.63;101925.64;1764260;80;21746;-83
2022/10/19 08:04:04;;;;;;;4.28;1.92;;;;;;;11.04;76.58;101929.23;1737804;81;21115;-82
2022/10/19 08:06:37;;;;;;;4.87;1.52;;;;;;;11.05;76.26;101934.97;1769955;80;21064;-83
2022/10/19 08:09:04;;;;;;;4.40;1.07;;;;;;;11.08;76.03;101929.84;1760757;80;21137;-83
2022/10/19 08:11:33;;;;;;;2.45;1.40;;;;;;;11.16;75.82;101929.27;1758547;81;21586;-82
2022/10/19 08:14:01;;;;;;;2.35;1.20;;;;;;;11.22;75.54;101938.73;1761306;80;21751;-82
2022/10/19 08:16:43;;;;;;;3.02;1.92;;;;;;;11.40;75.46;101928.05;1779500;80;21100;-83
2022/10/19 08:19:14;;;;;;;1.62;0.85;;;;;;;11.54;74.93;101927.28;1761621;80;21054;-83
2022/10/19 08:21:46;;;;;;;2.08;1.30;;;;;;;11.60;74.78;101932.39;1768954;80;21077;-83
2022/10/19 08:24:15;;;;;;;3.35;1.90;;;;;;;11.66;74.18;101936.58;1776446;80;21057;-83
2022/10/19 08:26:42;;;;;;;2.87;1.50;;;;;;;11.74;73.70;101948.75;1767696;80;22645;-82
2022/10/19 08:29:20;;;;;;;2.55;1.70;;;;;;;11.76;73.74;101947.06;1764740;80;20996;-82
2022/10/19 08:31:47;;;;;;;4.47;1.10;;;;;;;11.82;73.49;101960.52;1775208;80;21034;-82
2022/10/19 08:34:14;;;;;;;1.67;0.80;;;;;;;11.85;73.42;101967.22;1752307;80;21041;-82
2022/10/19 08:36:41;;;;;;;2.45;1.25;;;;;;;11.79;72.72;101990.73;1770690;81;21148;-82
2022/10/19 08:39:11;;;;;;;2.85;1.15;;;;;;;11.65;72.09;101966.84;1753144;80;21673;-82
2022/10/19 08:42:08;;;;;;;4.12;1.05;;;;;;;11.57;72.70;101966.97;1758751;80;21047;-81
2022/10/19 08:44:56;;;;;;;2.80;1.20;;;;;;;11.54;72.54;101969.47;1762097;80;21580;-82
2022/10/19 08:47:58;;;;;;;1.70;1.12;;;;;;;11.42;72.45;101970.77;1773062;80;21177;-82
2022/10/19 08:50:39;;;;;;;2.40;1.02;;;;;;;11.20;72.50;101972.92;1751376;79;21280;-83
2022/10/19 08:53:11;;;;;;;2.55;0.98;;;;;;;11.07;72.78;101979.44;1755645;80;21783;-88
2022/10/19 08:56:28;;;;;;;4.43;1.33;;;;;;;11.04;73.04;101983.67;1784109;80;21079;-82
2022/10/19 08:59:38;;;;;;;3.22;1.07;;;;;;;11.01;73.14;101979.15;1784446;80;21736;-82
2022/10/19 09:02:19;;;;;;;4.33;1.00;;;;;;;11.04;73.47;101992.47;1765972;80;21069;-87
2022/10/19 09:04:56;;;;;;;5.17;1.45;;;;;;;11.12;73.29;101992.80;1764970;80;21056;-88
2022/10/19 09:07:35;;;;;;;2.35;1.10;;;;;;;11.19;73.56;101986.06;1756851;80;21722;-82
2022/10/19 09:10:11;;;;;;;3.72;1.30;;;;;;;11.38;73.42;101985.98;1705927;84;21046;-85
2022/10/19 09:13:01;;;;;;;5.17;1.20;;;;;;;11.58;73.39;101988.13;1681840;84;21105;-84
2022/10/19 09:15:46;;;;;;;4.75;1.52;;;;;;;11.82;73.32;101990.86;1685060;82;21212;-83
2022/10/19 09:18:30;;;;;;;4.45;1.15;;;;;;;12.08;72.88;101998.91;1723825;82;21088;-88
2022/10/19 09:21:11;;;;;;;2.33;0.90;;;;;;;12.20;71.66;101996.76;1714680;82;21806;-88
2022/10/19 09:23:46;;;;;;;1.95;1.20;;;;;;;12.28;70.53;102020.81;1698847;83;21678;-89
2022/10/19 09:26:21;;;;;;;2.05;0.93;;;;;;;12.24;69.63;102015.83;1705323;82;21038;-82
2022/10/19 09:29:17;;;;;;;0.80;0.78;;;;;;;12.18;69.01;102016.92;1704397;82;21572;-89
2022/10/19 09:31:46;;;;;;;2.85;0.90;;;;;;;11.99;69.01;102018.34;1648723;84;21102;-83
2022/10/19 09:34:22;;;;;;;2.15;0.85;;;;;;;11.62;68.76;102026.97;1690722;83;21786;-82
2022/10/19 09:36:52;;;;;;;7.08;1.30;;;;;;;11.36;69.21;102023.67;1731457;81;21556;-88
2022/10/19 09:39:19;;;;;;;4.65;0.98;;;;;;;11.26;69.69;102023.67;1720545;80;21104;-82
2022/10/19 09:41:54;;;;;;;2.60;0.82;;;;;;;11.23;70.00;102020.94;1764422;80;21023;-89
2022/10/19 09:44:22;;;;;;;3.17;1.00;;;;;;;11.27;70.02;102031.66;1764291;80;21082;-83
2022/10/19 09:47:06;;;;;;;3.55;0.93;;;;;;;11.33;70.17;102036.29;1758669;80;21674;-86
2022/10/19 09:49:45;;;;;;;1.10;0.57;;;;;;;11.43;70.14;102046.41;1759893;80;21087;-83
2022/10/19 09:52:36;;;;;;;2.22;0.72;;;;;;;11.49;68.24;102040.48;1764163;79;21028;-89
2022/10/19 09:55:18;;;;;;;2.95;1.10;;;;;;;11.55;68.08;102054.34;1763600;80;21135;-82
2022/10/19 09:57:48;;;;;;;2.00;0.95;;;;;;;11.63;68.31;102041.94;1763966;80;21122;-83
2022/10/19 10:00:22;;;;;;;3.27;0.90;;;;;;;11.74;67.48;102059.54;1741345;80;22588;-88
2022/10/19 10:02:54;;;;;;;3.72;0.78;;;;;;;11.73;67.15;102061.71;1742592;81;21047;-89
2022/10/19 10:05:39;;;;;;;4.15;0.80;;;;;;;11.74;66.44;102062.17;1752412;80;21034;-83
2022/10/19 10:08:16;;;;;;;1.67;0.65;;;;;;;11.70;65.85;102063.32;1764209;80;21067;-83
2022/10/19 10:10:54;;;;;;;1.70;0.60;;;;;;;11.59;64.69;102065.50;1751417;80;21632;-82
2022/10/19 10:13:24;;;;;;;3.22;0.82;;;;;;;11.72;64.93;102066.48;1764099;80;22564;-82
2022/10/19 10:16:00;;;;;;;1.45;0.80;;;;;;;11.87;64.77;102056.56;1774893;80;21583;-87
2022/10/19 10:18:27;;;;;;;2.15;0.82;;;;;;;11.92;64.97;102055.48;1746703;80;21108;-82
2022/10/19 10:21:08;;;;;;;1.40;0.65;;;;;;;12.10;64.55;102062.32;1748803;80;21083;-83
2022/10/19 10:23:35;;;;;;;1.22;0.60;;;;;;;12.21;64.03;102067.61;1754617;80;21563;-88
2022/10/19 10:26:03;;;;;;;7.92;0.95;;;;;;;12.28;64.12;102069.66;1750843;80;21250;-88
2022/10/19 10:28:30;;;;;;;2.25;0.95;;;;;;;12.32;63.97;102077.28;1748553;81;21080;-82
2022/10/19 10:31:05;;;;;;;1.25;0.88;;;;;;;12.24;62.63;102083.58;1758242;80;21031;-83
2022/10/19 10:33:35;;;;;;;2.62;1.17;;;;;;;12.14;62.69;102098.55;1772565;80;21180;-88
2022/10/19 10:36:06;;;;;;;2.33;0.80;;;;;;;12.08;63.25;102091.28;1773655;80;21061;-88
2022/10/19 10:38:48;;;;;;;3.45;1.20;;;;;;;11.88;62.95;102073.31;1772534;80;21295;-88
2022/10/19 10:41:17;;;;;;;2.30;1.32;;;;;;;11.71;63.09;102092.38;1773091;80;21335;-88
2022/10/19 10:44:05;;;;;;;3.20;1.10;;;;;;;11.51;63.12;102092.88;1772650;80;21104;-89
2022/10/19 10:46:30;;;;;;;;;;;;;;;11.38;62.45;102106.36;1775248;80;21279;-88
2022/10/19 10:49:04;;;;;;;2.42;0.82;;;;;;;11.37;63.55;102084.34;1772213;80;20567;-83
2022/10/19 10:51:47;;;;;;;2.62;0.98;;;;;;;11.54;63.36;102082.43;1771526;80;22402;-82
2022/10/19 10:54:21;;;;;;;4.87;1.02;;;;;;;11.79;63.84;102084.37;1772761;80;21558;-82
2022/10/19 10:57:08;;;;;;;;;;;;;;;12.08;63.32;102089.97;1751414;79;21093;-88
2022/10/19 10:59:55;;;;;;;2.30;0.82;;;;;;;12.35;62.89;102098.50;1772264;80;20748;-83
2022/10/19 11:02:27;;;;;;;2.95;0.70;;;;;;;12.35;60.90;102098.09;1750503;80;21128;-88
2022/10/19 11:04:59;;;;;;;1.72;0.80;;;;;;;12.16;61.14;102095.16;1752260;80;21738;-88
2022/10/19 11:07:29;;;;;;;1.17;0.82;;;;;;;12.08;60.96;102104.48;1770997;80;21143;-88
2022/10/19 11:09:58;;;;;;;2.98;1.65;;;;;;;12.00;60.90;102096.26;1771891;80;21065;-84
2022/10/19 11:12:43;;;;;;;5.55;0.90;;;;;;;11.94;61.07;102102.61;1748588;80;21091;-90
2022/10/19 11:15:39;;;;;;;3.22;1.00;;;;;;;11.76;60.63;102109.30;1750992;80;21060;-89
2022/10/19 11:18:17;;;;;;;3.27;1.10;;;;;;;11.45;60.66;102113.70;1735291;80;22525;-89
2022/10/19 11:20:56;;;;;;;10.23;1.15;;;;;;;11.17;60.81;102099.74;1771260;80;21093;-90
2022/10/19 11:23:40;;;;;;;2.98;0.70;;;;;;;11.07;61.29;102104.99;1773030;80;21074;-89
2022/10/19 11:26:50;;;;;;;1.82;1.00;;;;;;;11.15;61.56;102107.58;1701247;82;21172;-89
2022/10/19 11:29:40;;;;;;;2.05;0.90;;;;;;;11.47;62.18;102100.17;1772703;79;21026;-89
2022/10/19 11:32:37;;;;;;;1.80;0.80;;;;;;;11.94;61.32;102107.00;1776374;79;21735;-84
2022/10/19 11:35:33;;;;;;;1.77;0.72;;;;;;;12.19;60.77;102096.58;1785486;79;21080;-83
2022/10/19 11:38:29;;;;;;;0.90;0.53;;;;;;;12.32;60.46;102107.64;1788198;79;21028;-89
2022/10/19 11:41:25;;;;;;;2.40;0.78;;;;;;;12.27;58.39;102096.88;1785700;79;21160;-89
2022/10/19 11:44:14;;;;;;;1.25;0.80;;;;;;;12.21;58.63;102113.38;1781148;79;21036;-88
2022/10/19 11:46:58;;;;;;;2.58;1.12;;;;;;;12.02;58.60;102104.24;1786272;79;22580;-82
2022/10/19 11:49:53;;;;;;;4.37;1.05;;;;;;;11.74;58.96;102102.17;1785083;79;21108;-87
2022/10/19 11:52:55;;;;;;;7.25;1.87;;;;;;;11.40;59.12;102121.41;1785527;78;21310;-88